Time;durP1;ratioP1;P1;durP2;ratioP2;P2;SDS_P1;SDS_P2;PMS_P1;PMS_P2;Temp;Humidity;BMP_temperature;BMP_pressure;BME280_temperature;BME280_humidity;BME280_pressure;Samples;Min_cycle;Max_cycle;Signal;HPM_P1;HPM_P2
2022/06/06 00:01:24;;;;;;;;;;;;;;;24.63;35.22;99782.66;4359162;32;20006;-84
2022/06/06 00:03:54;;;;;;;;;;;;;;;24.34;35.60;99779.41;4346176;32;20090;-84
2022/06/06 00:06:21;;;;;;;;;;;;;;;24.21;35.60;99783.50;4342508;32;20003;-83
2022/06/06 00:08:48;;;;;;;;;;;;;;;24.27;35.66;99789.38;4343930;32;19997;-85
2022/06/06 00:11:15;;;;;;;;;;;;;;;24.25;35.42;99790.38;4350629;32;19979;-85
2022/06/06 00:13:43;;;;;;;;;;;;;;;24.28;35.40;99784.97;4355820;32;19983;-85
2022/06/06 00:16:10;;;;;;;;;;;;;;;24.14;36.39;99789.03;4347968;32;19979;-86
2022/06/06 00:18:38;;;;;;;;;;;;;;;23.87;35.86;99779.59;4344768;32;19979;-88
2022/06/06 00:21:07;;;;;;;;;;;;;;;24.14;35.38;99781.09;4348078;32;19980;-85
2022/06/06 00:23:34;;;;;;;;;;;;;;;24.33;35.46;99788.28;4357378;32;20348;-82
2022/06/06 00:26:04;;;;;;;;;;;;;;;24.34;35.13;99784.72;4350090;32;19999;-84
2022/06/06 00:28:31;;;;;;;;;;;;;;;24.21;35.33;99784.34;4360048;32;20034;-86
2022/06/06 00:34:48;;;;;;;;;;;;;;;23.96;35.93;99783.62;4346027;32;20060;-85
2022/06/06 00:36:31;;;;;;;;;;;;;;;24.10;36.42;99792.72;4362080;32;19982;-82
2022/06/06 00:38:58;;;;;;;;;;;;;;;24.17;36.28;99803.06;4355731;32;19975;-83
2022/06/06 00:41:25;;;;;;;;;;;;;;;24.35;35.55;99807.62;4364099;32;20266;-85
2022/06/06 00:44:05;;;;;;;;;;;;;;;24.27;35.93;99815.00;4355865;32;19998;-85
2022/06/06 00:46:36;;;;;;;;;;;;;;;24.33;36.13;99826.19;4360521;32;20033;-85
2022/06/06 00:49:03;;;;;;;;;;;;;;;24.26;36.21;99824.72;4342463;32;19979;-84
2022/06/06 00:51:30;;;;;;;;;;;;;;;24.18;36.54;99825.94;4342231;32;20353;-83
2022/06/06 00:53:57;;;;;;;;;;;;;;;24.29;37.22;99826.37;4343116;32;20001;-85
2022/06/06 00:56:35;;;;;;;;;;;;;;;24.13;36.73;99834.94;4362839;32;19979;-84
2022/06/06 00:59:03;;;;;;;;;;;;;;;24.19;37.60;99843.56;4342124;32;20018;-85
2022/06/06 01:01:31;;;;;;;;;;;;;;;24.01;37.49;99856.56;4341710;32;19971;-85
2022/06/06 01:03:58;;;;;;;;;;;;;;;24.07;37.43;99866.91;4342136;32;20037;-84
2022/06/06 01:06:25;;;;;;;;;;;;;;;24.10;37.72;99861.50;4355928;32;19975;-81
2022/06/06 01:08:52;;;;;;;;;;;;;;;24.00;37.74;99868.06;4355468;32;20002;-83
2022/06/06 01:11:19;;;;;;;;;;;;;;;24.25;36.43;99867.09;4363800;32;20042;-82
2022/06/06 01:13:46;;;;;;;;;;;;;;;24.25;36.66;99859.16;4359169;32;20025;-84
2022/06/06 01:16:22;;;;;;;;;;;;;;;24.19;37.01;99859.44;4354367;32;20003;-85
2022/06/06 01:18:56;;;;;;;;;;;;;;;24.12;37.85;99864.06;4370693;32;19990;-82
2022/06/06 01:21:22;;;;;;;;;;;;;;;23.91;38.44;99871.06;4356783;32;20361;-83
2022/06/06 01:23:59;;;;;;;;;;;;;;;23.83;38.80;99868.69;4366314;32;19975;-83
2022/06/06 01:26:26;;;;;;;;;;;;;;;23.94;38.81;99870.09;4364405;32;20051;-84
2022/06/06 01:28:54;;;;;;;;;;;;;;;23.89;39.65;99867.59;4370226;32;19975;-85
2022/06/06 01:31:28;;;;;;;;;;;;;;;23.87;39.97;99875.62;4350902;32;20022;-86
2022/06/06 01:34:02;;;;;;;;;;;;;;;23.92;38.70;99872.78;4331081;32;19991;-85
2022/06/06 01:36:29;;;;;;;;;;;;;;;23.95;38.98;99877.94;4355415;32;20003;-84
2022/06/06 01:38:57;;;;;;;;;;;;;;;23.93;38.67;99885.09;4355085;32;20314;-82
2022/06/06 01:41:27;;;;;;;;;;;;;;;23.98;38.39;99893.69;4341758;32;19987;-84
2022/06/06 01:43:58;;;;;;;;;;;;;;;23.77;40.49;99899.78;4355223;32;19995;-84
2022/06/06 01:46:28;;;;;;;;;;;;;;;23.84;40.23;99903.97;4352065;32;20001;-81
2022/06/06 01:48:56;;;;;;;;;;;;;;;23.98;39.56;99914.84;4347502;32;19971;-85
2022/06/06 01:51:24;;;;;;;;;;;;;;;24.01;40.14;99933.25;4344202;32;19991;-85
2022/06/06 01:53:52;;;;;;;;;;;;;;;23.96;40.00;99953.72;4349931;32;19987;-85
2022/06/06 01:56:20;;;;;;;;;;;;;;;24.00;39.60;99967.69;4355335;32;19986;-84
2022/06/06 01:58:47;;;;;;;;;;;;;;;23.80;40.88;99984.28;4341705;32;20083;-84
2022/06/06 02:01:14;;;;;;;;;;;;;;;24.02;39.99;100008.16;4356403;32;19990;-84
2022/06/06 02:03:42;;;;;;;;;;;;;;;23.86;40.39;100026.34;4361695;32;20005;-83
2022/06/06 02:06:09;;;;;;;;;;;;;;;23.85;39.83;100019.34;4355872;32;20001;-84
2022/06/06 02:08:37;;;;;;;;;;;;;;;23.93;39.54;100012.03;4363346;32;20009;-85
2022/06/06 02:11:11;;;;;;;;;;;;;;;24.06;39.28;100010.66;4343682;32;20331;-85
2022/06/06 02:13:38;;;;;;;;;;;;;;;24.06;38.58;100002.72;4361672;32;19995;-85
2022/06/06 02:16:11;;;;;;;;;;;;;;;24.03;38.86;99984.31;4363643;32;20029;-82
2022/06/06 02:18:38;;;;;;;;;;;;;;;23.97;39.58;99981.91;4342229;32;20025;-81
2022/06/06 02:21:05;;;;;;;;;;;;;;;23.97;39.76;99971.31;4356433;32;20474;-85
2022/06/06 02:23:32;;;;;;;;;;;;;;;24.06;39.96;99965.69;4349572;32;20061;-83
2022/06/06 02:26:00;;;;;;;;;;;;;;;23.98;40.06;99967.75;4367888;32;19983;-84
2022/06/06 02:28:33;;;;;;;;;;;;;;;23.94;40.53;99968.78;4369543;32;19995;-82
2022/06/06 02:31:00;;;;;;;;;;;;;;;24.01;40.63;99972.91;4365172;32;19992;-83
2022/06/06 02:33:27;;;;;;;;;;;;;;;23.96;41.90;99969.56;4360238;32;20313;-83
2022/06/06 02:35:54;;;;;;;;;;;;;;;24.02;42.14;99972.00;4342375;32;20035;-81
2022/06/06 02:38:22;;;;;;;;;;;;;;;23.82;42.56;99978.00;4363077;32;19979;-82
2022/06/06 02:40:49;;;;;;;;;;;;;;;23.68;42.77;99980.28;4341874;32;20010;-84
2022/06/06 02:43:18;;;;;;;;;;;;;;;23.69;42.62;99983.81;4359881;32;19987;-84
2022/06/06 02:45:48;;;;;;;;;;;;;;;23.62;41.99;99986.63;4360681;32;20000;-81
2022/06/06 02:48:16;;;;;;;;;;;;;;;23.78;41.31;99976.41;4346523;32;20022;-82
2022/06/06 02:50:45;;;;;;;;;;;;;;;23.74;41.25;99973.91;4343281;32;19995;-85
2022/06/06 02:53:12;;;;;;;;;;;;;;;23.73;40.59;99966.91;4359460;32;20045;-83
2022/06/06 02:55:39;;;;;;;;;;;;;;;23.73;40.41;99964.28;4351325;32;19997;-81
2022/06/06 02:58:06;;;;;;;;;;;;;;;23.62;41.55;99954.06;4359355;32;19998;-85
2022/06/06 03:00:33;;;;;;;;;;;;;;;23.68;41.79;99953.84;4358362;32;19987;-85
2022/06/06 03:03:00;;;;;;;;;;;;;;;23.83;41.70;99957.72;4354804;32;20376;-83
2022/06/06 03:05:34;;;;;;;;;;;;;;;23.52;42.33;99973.81;4358909;32;20005;-83
2022/06/06 03:08:34;;;;;;;;;;;;;;;23.32;42.66;99975.34;4334134;32;19982;-84
2022/06/06 03:11:12;;;;;;;;;;;;;;;23.57;42.38;99961.28;4350254;32;20404;-84
2022/06/06 03:13:55;;;;;;;;;;;;;;;23.56;42.05;99960.41;4363741;32;19978;-84
2022/06/06 03:22:21;;;;;;;;;;;;;;;23.66;41.48;99951.25;4363932;32;20011;-85
2022/06/06 03:24:56;;;;;;;;;;;;;;;23.48;43.45;99957.16;4358776;32;20066;-82
2022/06/06 03:27:23;;;;;;;;;;;;;;;23.50;43.68;99950.06;4349165;32;20062;-83
2022/06/06 03:29:50;;;;;;;;;;;;;;;23.46;43.51;99947.59;4369150;32;20021;-82
2022/06/06 03:32:20;;;;;;;;;;;;;;;23.46;43.26;99937.88;4364351;32;20070;-85
2022/06/06 03:35:13;;;;;;;;;;;;;;;23.35;43.47;99935.59;4341146;32;19987;-83
2022/06/06 03:37:52;;;;;;;;;;;;;;;23.37;42.72;99933.78;4353856;32;19996;-84
2022/06/06 03:40:24;;;;;;;;;;;;;;;23.54;43.49;99927.03;4339601;32;20039;-84
2022/06/06 03:43:00;;;;;;;;;;;;;;;23.55;42.28;99924.34;4354700;32;20029;-83
2022/06/06 03:45:35;;;;;;;;;;;;;;;23.50;42.99;99910.44;4344545;32;20359;-81
2022/06/06 03:48:03;;;;;;;;;;;;;;;23.39;43.93;99909.97;4344250;32;20038;-80
2022/06/06 03:50:34;;;;;;;;;;;;;;;23.51;43.77;99904.22;4354846;32;19988;-85
2022/06/06 03:53:08;;;;;;;;;;;;;;;23.44;45.49;99902.72;4062870;32;10003785;-83
2022/06/06 03:55:54;;;;;;;;;;;;;;;23.40;44.30;99890.53;4283243;33;20048;-85
2022/06/06 03:58:22;;;;;;;;;;;;;;;23.33;44.44;99889.06;4297731;33;19988;-85
2022/06/06 04:00:49;;;;;;;;;;;;;;;23.41;44.03;99886.97;4284458;33;19990;-85
2022/06/06 04:03:16;;;;;;;;;;;;;;;23.36;44.95;99888.94;4297504;33;20036;-81
2022/06/06 04:05:43;;;;;;;;;;;;;;;23.50;44.10;99889.28;4297885;33;19988;-83
2022/06/06 04:08:10;;;;;;;;;;;;;;;23.50;44.96;99897.22;4289155;33;20003;-85
2022/06/06 04:10:42;;;;;;;;;;;;;;;23.58;44.36;99892.53;4292140;33;20032;-87
2022/06/06 04:13:24;;;;;;;;;;;;;;;23.50;44.42;99902.50;4284418;33;20089;-80
2022/06/06 04:15:57;;;;;;;;;;;;;;;23.40;43.84;99911.69;4306594;33;20010;-85
2022/06/06 04:18:43;;;;;;;;;;;;;;;23.20;44.39;99920.31;4309501;33;19998;-86
2022/06/06 04:21:16;;;;;;;;;;;;;;;23.04;45.17;99924.37;4290184;33;19999;-84
2022/06/06 04:23:54;;;;;;;;;;;;;;;23.24;45.00;99926.34;4299803;33;20019;-88
2022/06/06 04:26:28;;;;;;;;;;;;;;;23.12;44.82;99928.47;4290656;33;19997;-83
2022/06/06 04:28:54;;;;;;;;;;;;;;;23.12;44.91;99928.47;4290604;33;20035;-85
2022/06/06 04:31:21;;;;;;;;;;;;;;;23.23;44.43;99924.59;4297542;33;20006;-81
2022/06/06 04:33:51;;;;;;;;;;;;;;;23.19;45.03;99935.28;4297292;33;19972;-82
2022/06/06 04:36:20;;;;;;;;;;;;;;;23.31;45.00;99930.50;4297334;33;20717;-79
2022/06/06 04:38:50;;;;;;;;;;;;;;;23.32;45.39;99924.28;4297434;33;19984;-81
2022/06/06 04:41:29;;;;;;;;;;;;;;;23.27;45.36;99934.16;4283886;33;20032;-83
2022/06/06 04:43:59;;;;;;;;;;;;;;;23.27;45.41;99939.44;4284064;33;19985;-84
2022/06/06 04:46:40;;;;;;;;;;;;;;;23.22;46.33;99944.88;4297479;33;20004;-83
2022/06/06 04:49:07;;;;;;;;;;;;;;;23.38;45.60;99939.91;4297783;33;20074;-86
2022/06/06 04:51:34;;;;;;;;;;;;;;;23.31;45.07;99943.69;4285653;33;20052;-88
2022/06/06 04:54:01;;;;;;;;;;;;;;;23.21;45.60;99944.00;4295525;33;19985;-86
2022/06/06 04:56:28;;;;;;;;;;;;;;;23.35;45.37;99940.03;4309053;33;20007;-87
2022/06/06 04:58:55;;;;;;;;;;;;;;;23.47;46.00;99944.88;4315514;33;20063;-84
2022/06/06 05:01:23;;;;;;;;;;;;;;;23.37;45.98;99951.41;4306101;33;20785;-84
2022/06/06 05:03:50;;;;;;;;;;;;;;;23.49;45.58;99948.34;4308197;33;19988;-87
2022/06/06 05:06:26;;;;;;;;;;;;;;;23.41;46.49;99950.38;4311779;33;20039;-87
2022/06/06 05:08:56;;;;;;;;;;;;;;;23.49;46.63;99948.34;4309635;33;19988;-80
2022/06/06 05:11:47;;;;;;;;;;;;;;;23.57;45.80;99956.84;4307930;33;20043;-83
2022/06/06 05:14:35;;;;;;;;;;;;;;;23.64;46.78;99955.75;4297254;33;19980;-83
2022/06/06 05:17:17;;;;;;;;;;;;;;;23.76;46.98;99956.22;4310120;33;20009;-85
2022/06/06 05:19:47;;;;;;;;;;;;;;;23.85;46.63;99961.19;4308697;33;19979;-80
2022/06/06 05:22:32;;;;;;;;;;;;;;;23.82;47.73;99962.16;4311603;33;20032;-88
2022/06/06 05:25:03;;;;;;;;;;;;;;;23.88;46.84;99964.56;4306780;33;20044;-85
2022/06/06 05:27:48;;;;;;;;;;;;;;;23.94;47.74;99971.44;4311107;33;19984;-81
2022/06/06 05:30:18;;;;;;;;;;;;;;;24.06;47.52;99975.41;4311704;33;20358;-82
2022/06/06 05:32:49;;;;;;;;;;;;;;;24.01;48.19;99972.91;4306948;33;19994;-83
2022/06/06 05:35:16;;;;;;;;;;;;;;;24.04;47.98;99975.44;4285918;33;19996;-91
2022/06/06 05:37:46;;;;;;;;;;;;;;;23.98;48.65;99966.88;4302159;33;20401;-85
2022/06/06 05:40:13;;;;;;;;;;;;;;;24.14;48.68;99968.88;4300969;33;19994;-90
2022/06/06 05:42:49;;;;;;;;;;;;;;;24.17;49.75;99967.06;4305294;33;20018;-84
2022/06/06 05:45:28;;;;;;;;;;;;;;;24.32;49.32;99966.47;4303763;33;20032;-86
2022/06/06 05:48:14;;;;;;;;;;;;;;;24.50;48.04;99964.91;4303792;33;19980;-82
2022/06/06 05:50:47;;;;;;;;;;;;;;;24.39;48.21;99962.66;4311844;33;20039;-88
2022/06/06 05:53:20;;;;;;;;;;;;;;;24.53;48.50;99970.94;4305932;33;20027;-86
2022/06/06 05:56:05;;;;;;;;;;;;;;;24.61;48.51;99977.75;4296850;33;20065;-87
2022/06/06 05:58:49;;;;;;;;;;;;;;;24.62;47.44;99979.47;4301229;33;19980;-86
2022/06/06 06:01:18;;;;;;;;;;;;;;;24.49;49.41;99974.66;4293365;33;20313;-87
2022/06/06 06:04:04;;;;;;;;;;;;;;;24.61;48.85;99977.75;4309828;33;19980;-87
2022/06/06 06:06:34;;;;;;;;;;;;;;;24.35;50.14;99971.66;4303368;33;20433;-90
2022/06/06 06:09:10;;;;;;;;;;;;;;;24.43;49.58;99974.88;4297203;33;20313;-82
2022/06/06 06:11:45;;;;;;;;;;;;;;;24.50;49.80;99976.38;4296955;33;19998;-84
2022/06/06 06:14:12;;;;;;;;;;;;;;;24.77;48.58;99973.56;4301409;33;19976;-80
2022/06/06 06:16:43;;;;;;;;;;;;;;;24.86;48.94;99967.91;4309531;33;20664;-87
2022/06/06 06:19:13;;;;;;;;;;;;;;;25.08;46.96;99974.94;4289163;33;19984;-85
2022/06/06 06:21:41;;;;;;;;;;;;;;;25.12;47.60;99979.22;4296737;33;20031;-88
2022/06/06 06:24:09;;;;;;;;;;;;;;;25.22;45.57;99980.56;4299114;33;20460;-83
2022/06/06 06:26:36;;;;;;;;;;;;;;;25.20;46.23;99987.72;4303414;33;19976;-82
2022/06/06 06:29:04;;;;;;;;;;;;;;;25.34;46.05;99990.66;4302963;33;20485;-81
2022/06/06 06:31:31;;;;;;;;;;;;;;;25.43;45.35;99992.94;4297337;33;19985;-82
2022/06/06 06:34:17;;;;;;;;;;;;;;;25.57;44.33;99996.75;4297010;33;20060;-83
2022/06/06 06:36:45;;;;;;;;;;;;;;;25.60;44.34;100001.94;4314298;33;20288;-79
2022/06/06 06:39:24;;;;;;;;;;;;;;;25.53;45.00;99998.69;4315331;33;20004;-83
2022/06/06 06:42:13;;;;;;;;;;;;;;;25.38;46.36;99997.53;4327999;33;20113;-84
2022/06/06 06:44:41;;;;;;;;;;;;;;;25.43;46.77;99995.56;4320897;33;20015;-82
2022/06/06 06:47:08;;;;;;;;;;;;;;;25.55;45.62;99995.97;4313203;33;20079;-87
2022/06/06 06:49:44;;;;;;;;;;;;;;;25.73;44.38;99987.22;4341877;32;20001;-83
2022/06/06 06:52:30;;;;;;;;;;;;;;;25.87;43.92;99984.81;4351516;32;20022;-85
2022/06/06 06:55:15;;;;;;;;;;;;;;;25.42;45.57;99983.22;4346416;32;20043;-85
2022/06/06 06:57:43;;;;;;;;;;;;;;;25.81;44.95;99990.41;4341482;32;20305;-84
2022/06/06 07:00:11;;;;;;;;;;;;;;;25.79;45.27;99986.94;4346691;32;20309;-88
2022/06/06 07:08:38;;;;;;;;;;;;;;;26.30;44.23;99982.03;4335276;32;20293;-81
2022/06/06 07:11:09;;;;;;;;;;;;;;;26.78;41.92;99981.50;4341316;32;20038;-83
2022/06/06 07:13:48;;;;;;;;;;;;;;;26.92;40.70;99986.13;4338990;33;20034;-81
2022/06/06 07:16:19;;;;;;;;;;;;;;;27.30;41.31;99989.56;4352196;32;19997;-82
2022/06/06 07:18:47;;;;;;;;;;;;;;;27.43;39.98;99980.97;4326701;33;19988;-82
2022/06/06 07:21:14;;;;;;;;;;;;;;;27.41;40.32;99982.84;4334488;32;20005;-84
2022/06/06 07:23:41;;;;;;;;;;;;;;;27.53;40.54;99982.22;4328501;32;19988;-85
2022/06/06 07:26:10;;;;;;;;;;;;;;;27.85;38.55;99977.03;4352205;32;19994;-82
2022/06/06 07:28:36;;;;;;;;;;;;;;;27.88;38.54;99984.84;4335800;32;19991;-85
2022/06/06 07:31:13;;;;;;;;;;;;;;;27.93;38.77;99985.50;4332534;33;20039;-83
2022/06/06 07:33:43;;;;;;;;;;;;;;;28.07;38.34;99998.03;4341329;33;20030;-87
2022/06/06 07:36:12;;;;;;;;;;;;;;;28.46;37.58;99995.03;4342852;32;19994;-88
2022/06/06 07:38:58;;;;;;;;;;;;;;;28.82;36.45;99996.59;4354649;32;19982;-92
2022/06/06 07:41:25;;;;;;;;;;;;;;;28.52;35.42;100000.00;4356809;32;20260;-94
2022/06/06 07:44:11;;;;;;;;;;;;;;;29.10;33.27;99999.41;4356744;32;19980;-87
2022/06/06 07:46:42;;;;;;;;;;;;;;;28.90;34.35;99994.31;4335191;32;20307;-85
2022/06/06 07:49:11;;;;;;;;;;;;;;;29.15;34.83;99999.13;4349887;32;20034;-87
2022/06/06 07:52:02;;;;;;;;;;;;;;;29.35;33.81;100003.28;4336889;32;20057;-86
2022/06/06 07:54:42;;;;;;;;;;;;;;;29.09;31.78;99997.69;4334722;32;19998;-81
2022/06/06 07:57:11;;;;;;;;;;;;;;;29.42;30.41;100002.00;4341472;32;19977;-82
2022/06/06 07:59:53;;;;;;;;;;;;;;;29.88;29.25;99993.91;4348395;32;20083;-81
2022/06/06 08:02:31;;;;;;;;;;;;;;;29.26;30.86;99995.81;4332456;32;20033;-87
2022/06/06 08:05:01;;;;;;;;;;;;;;;29.59;29.40;100004.50;4331144;33;19979;-86
2022/06/06 08:07:28;;;;;;;;;;;;;;;29.37;30.40;100001.41;4349641;32;20054;-84
2022/06/06 08:10:07;;;;;;;;;;;;;;;29.29;29.76;100006.31;4341534;33;20003;-86
2022/06/06 08:12:39;;;;;;;;;;;;;;;28.91;30.51;100007.59;4345707;32;19987;-83
2022/06/06 08:15:08;;;;;;;;;;;;;;;28.53;34.13;100012.41;4348807;32;19998;-79
2022/06/06 08:17:38;;;;;;;;;;;;;;;28.90;31.29;100013.84;4341463;32;19975;-79
2022/06/06 08:20:20;;;;;;;;;;;;;;;28.52;33.13;100010.66;4355225;32;19995;-82
2022/06/06 08:22:48;;;;;;;;;;;;;;;28.41;34.50;100005.09;4350041;32;19979;-81
2022/06/06 08:25:15;;;;;;;;;;;;;;;28.34;35.82;100014.34;4336319;32;20272;-81
2022/06/06 08:27:44;;;;;;;;;;;;;;;28.45;34.66;100006.63;4343527;32;20376;-82
2022/06/06 08:30:12;;;;;;;;;;;;;;;28.38;35.72;100018.53;4333263;33;20047;-83
2022/06/06 08:32:45;;;;;;;;;;;;;;;28.73;34.09;100014.81;4328266;33;20035;-80
2022/06/06 08:35:12;;;;;;;;;;;;;;;28.51;35.19;100014.28;4339669;33;20487;-80
2022/06/06 08:37:52;;;;;;;;;;;;;;;28.59;34.25;100017.41;4341139;32;20010;-82
2022/06/06 08:40:31;;;;;;;;;;;;;;;27.91;38.66;100013.97;4353364;32;19976;-79
2022/06/06 08:43:01;;;;;;;;;;;;;;;28.37;35.61;100016.84;4333417;32;20054;-83
2022/06/06 08:45:47;;;;;;;;;;;;;;;28.47;35.14;100012.75;4349556;32;20065;-81
2022/06/06 08:48:14;;;;;;;;;;;;;;;28.22;35.81;100008.72;4351047;32;20046;-79
2022/06/06 08:50:59;;;;;;;;;;;;;;;28.23;34.62;100010.44;4345283;32;20336;-80
2022/06/06 08:53:28;;;;;;;;;;;;;;;28.45;34.65;100015.47;4350448;32;20000;-82
2022/06/06 08:56:02;;;;;;;;;;;;;;;28.59;33.66;100012.06;4347201;32;20001;-83
2022/06/06 08:58:32;;;;;;;;;;;;;;;28.21;36.29;100007.00;4354520;32;20001;-79
2022/06/06 09:00:59;;;;;;;;;;;;;;;28.52;36.53;100002.69;4349655;32;20055;-81
2022/06/06 09:03:30;;;;;;;;;;;;;;;28.61;35.48;100010.16;4349959;32;19998;-77
2022/06/06 09:06:04;;;;;;;;;;;;;;;28.25;37.61;100019.22;4340849;32;20379;-82
2022/06/06 09:08:32;;;;;;;;;;;;;;;28.68;35.77;100008.84;4336374;32;20023;-77
2022/06/06 09:11:18;;;;;;;;;;;;;;;28.79;35.37;100007.41;4341668;32;19976;-82
2022/06/06 09:14:04;;;;;;;;;;;;;;;28.44;37.18;99996.94;4347454;32;20042;-80
2022/06/06 09:16:49;;;;;;;;;;;;;;;28.56;38.00;100006.91;4341660;33;20049;-77
2022/06/06 09:19:28;;;;;;;;;;;;;;;29.04;35.01;100002.44;4348627;32;20048;-77
2022/06/06 09:22:18;;;;;;;;;;;;;;;29.04;37.16;99991.78;4352347;32;20030;-81
2022/06/06 09:24:51;;;;;;;;;;;;;;;29.61;35.51;100001.75;4335819;32;20553;-81
2022/06/06 09:27:27;;;;;;;;;;;;;;;29.59;35.87;99988.50;4353409;32;20364;-79
2022/06/06 09:30:01;;;;;;;;;;;;;;;29.93;33.45;99981.13;4337418;32;20648;-81
2022/06/06 09:32:43;;;;;;;;;;;;;;;29.42;33.65;99975.34;4353997;32;20035;-83
2022/06/06 09:35:23;;;;;;;;;;;;;;;29.76;35.13;99975.97;4344725;32;20376;-78
2022/06/06 09:38:02;;;;;;;;;;;;;;;30.15;37.31;99979.78;4349125;32;19997;-82
2022/06/06 09:40:45;;;;;;;;;;;;;;;30.30;33.93;99973.50;4349940;32;19984;-80
2022/06/06 09:43:32;;;;;;;;;;;;;;;30.56;32.62;99974.50;4338747;32;20026;-81
2022/06/06 09:45:59;;;;;;;;;;;;;;;30.70;33.96;99970.94;4343516;32;20026;-81
2022/06/06 09:48:29;;;;;;;;;;;;;;;30.84;32.43;99968.25;4339182;32;20046;-81
2022/06/06 09:51:20;;;;;;;;;;;;;;;30.61;32.54;99966.19;4340968;33;19980;-79
2022/06/06 09:59:40;;;;;;;;;;;;;;;30.14;29.83;99952.22;4344918;32;19997;-82
2022/06/06 10:02:10;;;;;;;;;;;;;;;30.65;30.90;99946.31;4351461;32;19983;-79
2022/06/06 10:04:41;;;;;;;;;;;;;;;31.11;32.48;99959.31;4352505;32;20001;-79
2022/06/06 10:07:07;;;;;;;;;;;;;;;31.46;29.01;99960.50;4350305;32;20062;-78
2022/06/06 10:09:40;;;;;;;;;;;;;;;31.07;31.78;99941.78;4348702;32;20042;-80
2022/06/06 10:12:26;;;;;;;;;;;;;;;31.70;26.03;99949.06;4350923;32;19984;-81
2022/06/06 10:15:11;;;;;;;;;;;;;;;31.13;29.75;99941.38;4300293;33;20355;-79
2022/06/06 10:17:48;;;;;;;;;;;;;;;31.49;28.62;99946.91;4337530;33;19987;-79
2022/06/06 10:20:30;;;;;;;;;;;;;;;31.14;28.80;99945.75;4319242;33;20059;-81
2022/06/06 10:23:07;;;;;;;;;;;;;;;31.47;25.70;99946.16;4339985;33;19988;-78
2022/06/06 10:25:34;;;;;;;;;;;;;;;31.33;27.34;99943.56;4335723;33;20006;-78
2022/06/06 10:28:14;;;;;;;;;;;;;;;31.48;26.59;99937.16;4333396;32;20010;-80
2022/06/06 10:31:00;;;;;;;;;;;;;;;31.09;28.49;99945.22;4352152;32;19983;-79
2022/06/06 10:33:46;;;;;;;;;;;;;;;31.00;25.21;99939.53;4350008;32;20035;-80
2022/06/06 10:36:17;;;;;;;;;;;;;;;31.23;26.04;99943.31;4348345;32;20727;-81
2022/06/06 10:38:49;;;;;;;;;;;;;;;31.35;25.80;99946.16;4336910;32;20026;-81
2022/06/06 10:41:19;;;;;;;;;;;;;;;31.45;24.89;99942.72;4335133;32;20055;-77
2022/06/06 10:44:16;;;;;;;;;;;;;;;31.34;26.10;99944.44;4351997;32;20011;-79
2022/06/06 10:46:46;;;;;;;;;;;;;;;31.71;26.03;99929.34;4174907;32;5013143;-80
2022/06/06 10:49:20;;;;;;;;;;;;;;;31.69;28.29;99928.62;4342116;32;20042;-79
2022/06/06 10:52:06;;;;;;;;;;;;;;;31.86;26.73;99925.59;4335559;32;19999;-80
2022/06/06 10:54:49;;;;;;;;;;;;;;;31.70;29.83;99924.97;4342086;32;19994;-78
2022/06/06 10:57:34;;;;;;;;;;;;;;;31.47;26.45;99919.41;4331555;32;20608;-77
2022/06/06 11:00:07;;;;;;;;;;;;;;;31.54;26.21;99922.50;4277033;32;20155;-78
2022/06/06 11:02:54;;;;;;;;;;;;;;;31.15;29.15;99918.06;4334278;32;20101;-81
2022/06/06 11:05:27;;;;;;;;;;;;;;;31.34;29.29;99913.19;4355741;32;20021;-78
2022/06/06 11:08:10;;;;;;;;;;;;;;;31.79;26.40;99910.94;4362964;32;20030;-79
2022/06/06 11:10:55;;;;;;;;;;;;;;;31.72;28.10;99913.19;4369196;32;19990;-80
2022/06/06 11:13:45;;;;;;;;;;;;;;;31.64;26.98;99909.31;4364891;32;20057;-80
2022/06/06 11:16:16;;;;;;;;;;;;;;;32.08;26.44;99899.97;4342488;32;19979;-81
2022/06/06 11:18:46;;;;;;;;;;;;;;;31.93;27.78;99905.47;4366623;32;20025;-79
2022/06/06 11:21:19;;;;;;;;;;;;;;;32.03;25.78;99904.81;4363204;32;20002;-81
2022/06/06 11:23:45;;;;;;;;;;;;;;;32.24;23.95;99907.75;4358820;32;19987;-81
2022/06/06 11:26:25;;;;;;;;;;;;;;;32.26;23.67;99903.13;4363781;32;19976;-81
2022/06/06 11:29:11;;;;;;;;;;;;;;;32.19;23.89;99900.03;4367446;32;19979;-79
2022/06/06 11:31:41;;;;;;;;;;;;;;;32.30;23.74;99897.44;4363090;32;20892;-80
2022/06/06 11:34:23;;;;;;;;;;;;;;;32.22;25.11;99890.94;4355464;32;19998;-79
2022/06/06 11:36:59;;;;;;;;;;;;;;;32.39;23.74;99896.78;4362120;32;20261;-80
2022/06/06 11:39:36;;;;;;;;;;;;;;;32.39;23.28;99891.41;4344047;32;20344;-79
2022/06/06 11:42:06;;;;;;;;;;;;;;;32.35;24.77;99889.91;4371389;32;20300;-78
2022/06/06 11:44:39;;;;;;;;;;;;;;;31.98;25.32;99896.25;4366926;32;20636;-80
2022/06/06 11:47:09;;;;;;;;;;;;;;;32.38;26.52;99889.69;4317834;32;873633;-81
2022/06/06 11:49:42;;;;;;;;;;;;;;;32.20;26.90;99891.06;4358150;32;20050;-79
2022/06/06 11:52:09;;;;;;;;;;;;;;;31.37;26.11;99896.94;4366847;32;20037;-80
2022/06/06 11:54:45;;;;;;;;;;;;;;;32.06;24.64;99883.16;4368391;32;20320;-81
2022/06/06 11:57:24;;;;;;;;;;;;;;;32.40;23.17;99882.41;4353904;32;20600;-81
2022/06/06 12:00:11;;;;;;;;;;;;;;;32.27;23.92;99875.38;4370085;32;20016;-82
2022/06/06 12:02:57;;;;;;;;;;;;;;;31.75;26.62;99874.66;4346770;32;19994;-81
2022/06/06 12:05:25;;;;;;;;;;;;;;;32.23;23.91;99874.75;4363168;32;20099;-82
2022/06/06 12:08:11;;;;;;;;;;;;;;;32.18;25.04;99867.03;4371145;32;19989;-81
2022/06/06 12:10:52;;;;;;;;;;;;;;;31.57;27.08;99874.13;4369057;32;20026;-84
2022/06/06 12:13:20;;;;;;;;;;;;;;;31.64;26.05;99861.16;4357112;32;19995;-81
2022/06/06 12:15:51;;;;;;;;;;;;;;;30.98;28.93;99869.28;4361081;32;19999;-83
2022/06/06 12:18:24;;;;;;;;;;;;;;;31.33;26.94;99863.31;4351308;32;20609;-81
2022/06/06 12:20:59;;;;;;;;;;;;;;;31.96;24.22;99862.41;4368428;32;19983;-84
2022/06/06 12:23:31;;;;;;;;;;;;;;;31.69;25.60;99848.31;4369280;32;20758;-80
2022/06/06 12:26:07;;;;;;;;;;;;;;;31.78;26.33;99853.00;4353925;32;19983;-80
2022/06/06 12:28:53;;;;;;;;;;;;;;;32.04;25.96;99858.34;4365133;32;19975;-83
2022/06/06 12:31:37;;;;;;;;;;;;;;;31.98;25.07;99853.41;4356724;32;20063;-83
2022/06/06 12:34:09;;;;;;;;;;;;;;;32.32;24.73;99849.09;4359121;32;19995;-81
2022/06/06 12:36:40;;;;;;;;;;;;;;;32.31;24.47;99845.56;4352724;32;20038;-81
2022/06/06 12:39:13;;;;;;;;;;;;;;;32.23;24.32;99837.25;4350764;32;20317;-81
2022/06/06 12:41:48;;;;;;;;;;;;;;;32.24;25.82;99836.28;4363667;32;19984;-80
2022/06/06 12:44:18;;;;;;;;;;;;;;;31.48;27.92;99834.63;4367519;32;19994;-81
2022/06/06 12:46:46;;;;;;;;;;;;;;;31.98;24.28;99840.03;4364843;32;19987;-81
2022/06/06 12:49:31;;;;;;;;;;;;;;;32.03;24.21;99840.53;4364484;32;19997;-80
2022/06/06 12:52:16;;;;;;;;;;;;;;;32.00;23.86;99835.41;4364011;32;20384;-81
2022/06/06 12:57:48;;;;;;;;;;;;;;;31.94;24.40;99837.56;4354699;32;19979;-80
2022/06/06 13:00:15;;;;;;;;;;;;;;;31.94;24.25;99832.22;4354281;32;20321;-81
2022/06/06 13:03:01;;;;;;;;;;;;;;;31.70;23.89;99834.81;4347913;32;19984;-82
2022/06/06 13:05:35;;;;;;;;;;;;;;;31.38;27.66;99837.09;4369291;32;20065;-82
2022/06/06 13:08:05;;;;;;;;;;;;;;;31.78;25.17;99836.94;4340024;32;19999;-80
2022/06/06 13:10:47;;;;;;;;;;;;;;;31.78;24.76;99836.06;4359596;32;20050;-80
2022/06/06 13:13:14;;;;;;;;;;;;;;;31.27;27.52;99827.13;4369268;32;19990;-81
2022/06/06 13:16:00;;;;;;;;;;;;;;;31.59;24.17;99820.47;4369659;32;19987;-81
2022/06/06 13:18:32;;;;;;;;;;;;;;;31.64;25.11;99819.19;4357012;32;19987;-83
2022/06/06 13:21:03;;;;;;;;;;;;;;;31.58;25.19;99818.78;4363984;32;20042;-82
2022/06/06 13:23:40;;;;;;;;;;;;;;;31.81;25.39;99819.78;4343382;32;20341;-81
2022/06/06 13:26:26;;;;;;;;;;;;;;;32.00;24.05;99813.97;4350095;32;20279;-81
2022/06/06 13:28:55;;;;;;;;;;;;;;;31.48;27.60;99819.44;4363947;32;20036;-81
2022/06/06 13:31:28;;;;;;;;;;;;;;;32.06;22.93;99818.87;4344744;32;20048;-80
2022/06/06 13:34:09;;;;;;;;;;;;;;;31.92;24.17;99811.88;4364165;32;19987;-81
2022/06/06 13:36:36;;;;;;;;;;;;;;;32.22;23.82;99818.59;4350557;32;20010;-81
2022/06/06 13:39:13;;;;;;;;;;;;;;;32.20;22.80;99824.09;4364544;32;20041;-79
2022/06/06 13:41:42;;;;;;;;;;;;;;;31.80;24.68;99807.38;4364141;32;20031;-80